createdAt,value
2022-09-01T00:01:27.202Z,3.67
2022-09-01T00:03:55.450Z,3.77
2022-09-01T00:06:24.276Z,3.83
2022-09-01T00:08:51.637Z,3.37
2022-09-01T00:11:18.749Z,3.73
2022-09-01T00:13:45.861Z,3.60
2022-09-01T00:16:17.118Z,3.90
2022-09-01T00:18:46.887Z,3.90
2022-09-01T00:21:14.395Z,3.87
2022-09-01T00:23:41.299Z,4.07
2022-09-01T00:26:08.304Z,3.80
2022-09-01T00:28:35.857Z,3.67
2022-09-01T00:31:03.863Z,3.27
2022-09-01T00:33:30.934Z,3.20
2022-09-01T00:35:57.947Z,3.77
2022-09-01T00:38:24.937Z,3.70
2022-09-01T00:40:52.506Z,3.47
2022-09-01T00:43:38.936Z,3.47
2022-09-01T00:46:07.243Z,3.73
2022-09-01T00:48:36.984Z,3.13
2022-09-01T00:51:05.935Z,2.93
2022-09-01T00:53:33.965Z,3.40
2022-09-01T00:56:01.480Z,3.07
2022-09-01T00:58:28.971Z,2.97
2022-09-01T01:00:56.254Z,3.00
2022-09-01T01:03:24.263Z,3.17
2022-09-01T01:05:58.258Z,2.90
2022-09-01T01:08:34.687Z,3.10
2022-09-01T01:11:06.575Z,3.10
2022-09-01T01:13:49.004Z,3.23
2022-09-01T01:16:16.175Z,3.30
2022-09-01T01:18:43.259Z,2.57
2022-09-01T01:21:33.886Z,3.23
2022-09-01T01:24:06.688Z,3.00
2022-09-01T01:26:33.693Z,3.27
2022-09-01T01:29:03.318Z,3.27
2022-09-01T01:31:32.845Z,3.77
2022-09-01T01:34:00.973Z,3.07
2022-09-01T01:36:36.099Z,3.30
2022-09-01T01:39:07.066Z,3.47
2022-09-01T01:41:35.771Z,3.27
2022-09-01T01:44:05.484Z,3.47
2022-09-01T01:46:33.868Z,3.50
2022-09-01T01:49:03.101Z,3.87
2022-09-01T01:51:33.021Z,2.80
2022-09-01T01:54:05.841Z,3.00
2022-09-01T01:56:33.795Z,3.30
2022-09-01T01:59:02.463Z,2.83
2022-09-01T02:01:32.332Z,3.10
2022-09-01T02:04:00.669Z,3.03
2022-09-01T02:06:28.881Z,2.73
2022-09-01T02:08:58.523Z,3.10
2022-09-01T02:11:26.376Z,2.97
2022-09-01T02:13:57.654Z,3.10
2022-09-01T02:16:26.055Z,3.07
2022-09-01T02:18:54.179Z,3.43
2022-09-01T02:21:22.025Z,2.97
2022-09-01T02:24:00.578Z,2.90
2022-09-01T02:26:32.318Z,2.73
2022-09-01T02:29:04.823Z,3.00
2022-09-01T02:31:35.905Z,3.00
2022-09-01T02:34:04.462Z,3.07
2022-09-01T02:36:35.270Z,2.87
2022-09-01T02:39:02.507Z,3.00
2022-09-01T02:41:30.477Z,3.20
2022-09-01T02:44:02.462Z,3.53
2022-09-01T02:46:30.660Z,2.87
2022-09-01T02:49:00.856Z,2.97
2022-09-01T02:51:28.292Z,3.20
2022-09-01T02:53:55.284Z,3.30
2022-09-01T02:56:25.485Z,2.87
2022-09-01T02:58:54.448Z,2.93
2022-09-01T03:01:30.323Z,3.17
2022-09-01T03:03:59.919Z,2.90
2022-09-01T03:06:26.997Z,3.03
2022-09-01T03:08:56.150Z,2.73
2022-09-01T03:11:24.871Z,3.30
2022-09-01T03:13:51.787Z,2.93
2022-09-01T03:16:19.240Z,3.40
2022-09-01T03:18:46.564Z,3.07
2022-09-01T03:21:16.305Z,2.97
2022-09-01T03:23:45.328Z,3.37
2022-09-01T03:26:12.995Z,3.23
2022-09-01T03:28:40.619Z,3.43
2022-09-01T03:31:07.586Z,3.40
2022-09-01T03:33:34.703Z,3.13
2022-09-01T03:36:01.699Z,3.67
2022-09-01T03:38:29.769Z,3.00
2022-09-01T03:41:01.110Z,3.43
2022-09-01T03:43:35.957Z,2.97
2022-09-01T03:46:04.689Z,3.07
2022-09-01T03:48:32.238Z,3.10
2022-09-01T03:51:03.340Z,2.97
2022-09-01T03:53:32.349Z,3.80
2022-09-01T03:56:00.295Z,3.67
2022-09-01T03:58:27.608Z,3.60
2022-09-01T04:00:56.244Z,3.07
2022-09-01T04:03:29.156Z,3.00
2022-09-01T04:06:00.684Z,3.43
2022-09-01T04:08:32.674Z,3.10
2022-09-01T04:11:03.059Z,3.87
2022-09-01T04:13:38.262Z,3.30
2022-09-01T04:16:10.986Z,3.17
2022-09-01T04:18:40.330Z,3.77
2022-09-01T04:21:08.315Z,3.30
2022-09-01T04:23:35.888Z,3.70
2022-09-01T04:26:13.337Z,2.67
2022-09-01T04:28:44.993Z,3.30
2022-09-01T04:31:15.154Z,3.30
2022-09-01T04:33:45.185Z,3.00
2022-09-01T04:36:23.823Z,3.13
2022-09-01T04:38:55.136Z,3.57
2022-09-01T04:41:31.148Z,3.20
2022-09-01T04:44:04.972Z,3.23
2022-09-01T04:46:37.802Z,3.77
2022-09-01T04:49:11.956Z,3.10
2022-09-01T04:51:45.140Z,3.10
2022-09-01T04:54:15.026Z,2.90
2022-09-01T04:56:47.129Z,3.53
2022-09-01T04:59:16.816Z,3.27
2022-09-01T05:01:49.778Z,3.07
2022-09-01T05:04:22.816Z,3.37
2022-09-01T05:06:51.171Z,3.03
2022-09-01T05:09:19.981Z,2.87
2022-09-01T05:12:16.765Z,3.30
2022-09-01T05:14:48.836Z,2.77
2022-09-01T05:17:21.866Z,3.00
2022-09-01T05:19:51.234Z,2.93
2022-09-01T05:22:22.457Z,3.17
2022-09-01T05:24:56.245Z,2.70
2022-09-01T05:27:23.824Z,2.83
2022-09-01T05:29:50.662Z,3.33
2022-09-01T05:32:17.827Z,3.20
2022-09-01T05:34:46.656Z,2.70
2022-09-01T05:37:16.251Z,3.23
2022-09-01T05:39:43.340Z,2.70
2022-09-01T05:42:11.164Z,2.60
2022-09-01T05:44:44.387Z,3.03
2022-09-01T05:47:20.450Z,2.77
2022-09-01T05:49:50.739Z,2.73
2022-09-01T05:52:17.659Z,2.60
2022-09-01T05:54:49.851Z,2.90
2022-09-01T05:57:33.789Z,2.50
2022-09-01T06:00:03.012Z,2.87
2022-09-01T06:02:40.424Z,2.83
2022-09-01T06:05:07.745Z,2.10
2022-09-01T06:07:36.708Z,2.50
2022-09-01T06:10:05.602Z,2.40
2022-09-01T06:12:34.589Z,2.37
2022-09-01T06:15:01.988Z,2.80
2022-09-01T06:17:31.967Z,1.90
2022-09-01T06:20:11.010Z,2.47
2022-09-01T06:22:41.909Z,2.20
2022-09-01T06:25:09.753Z,2.40
2022-09-01T06:27:41.453Z,2.30
2022-09-01T06:30:15.445Z,2.80
2022-09-01T06:32:51.744Z,2.03
2022-09-01T06:35:18.715Z,2.23
2022-09-01T06:37:46.145Z,2.13
2022-09-01T06:40:25.691Z,2.80
2022-09-01T06:42:53.198Z,2.83
2022-09-01T06:45:21.328Z,2.80
2022-09-01T06:47:48.873Z,2.00
2022-09-01T06:51:14.967Z,2.30
2022-09-01T06:53:42.887Z,2.57
2022-09-01T06:56:09.454Z,2.00
2022-09-01T06:58:38.542Z,2.30
2022-09-01T07:01:16.197Z,2.40
2022-09-01T07:03:43.856Z,2.47
2022-09-01T07:09:46.934Z,2.67
2022-09-01T07:12:37.405Z,2.30
2022-09-01T07:17:53.402Z,2.43
2022-09-01T07:20:27.644Z,2.23
2022-09-01T07:23:06.245Z,2.20
2022-09-01T07:28:40.819Z,2.47
2022-09-01T07:42:56.940Z,2.00
2022-09-01T07:46:36.681Z,2.07
2022-09-01T07:49:02.727Z,2.07
2022-09-01T07:51:41.067Z,1.53
2022-09-01T07:54:08.228Z,1.63
2022-09-01T07:56:40.227Z,1.60
2022-09-01T07:59:14.856Z,1.60
2022-09-01T08:02:05.584Z,1.20
2022-09-01T08:04:34.677Z,1.10
2022-09-01T08:07:03.317Z,1.13
2022-09-01T08:09:37.501Z,1.00
2022-09-01T08:12:07.726Z,0.73
2022-09-01T08:14:39.699Z,0.90
2022-09-01T08:19:56.401Z,0.77
2022-09-01T08:22:43.239Z,0.70
2022-09-01T08:25:21.774Z,0.60
2022-09-01T08:27:59.793Z,0.90
2022-09-01T08:30:28.207Z,0.80
2022-09-01T08:32:55.194Z,1.00
2022-09-01T08:35:22.785Z,1.13
2022-09-01T08:37:49.721Z,0.60
2022-09-01T08:40:18.407Z,0.80
2022-09-01T08:42:48.886Z,0.90
2022-09-01T08:45:21.723Z,0.70
2022-09-01T08:48:28.740Z,0.67
2022-09-01T08:50:38.132Z,0.70
2022-09-01T08:53:32.481Z,0.70
2022-09-01T08:55:59.947Z,0.50
2022-09-01T08:58:30.987Z,0.90
2022-09-01T09:01:51.318Z,0.70
2022-09-01T09:04:18.318Z,0.60
2022-09-01T09:07:12.999Z,1.30
2022-09-01T09:09:47.848Z,0.70
2022-09-01T09:12:25.900Z,0.80
2022-09-01T09:15:07.678Z,0.80
2022-09-01T09:17:36.263Z,0.50
2022-09-01T09:20:04.492Z,0.60
2022-09-01T09:22:32.521Z,0.80
2022-09-01T09:25:03.392Z,0.57
2022-09-01T09:27:32.917Z,1.13
2022-09-01T09:30:09.126Z,0.60
2022-09-01T09:33:15.366Z,0.77
2022-09-01T09:35:33.940Z,0.60
2022-09-01T09:38:21.705Z,0.50
2022-09-01T09:43:47.834Z,0.87
2022-09-01T09:46:33.227Z,0.50
2022-09-01T09:49:36.623Z,0.57
2022-09-01T09:52:10.836Z,0.50
2022-09-01T09:55:01.444Z,1.00
2022-09-01T09:57:29.844Z,0.57
2022-09-01T10:00:08.917Z,0.80
2022-09-01T10:02:44.810Z,0.60
2022-09-01T10:05:38.293Z,0.60
2022-09-01T10:08:07.427Z,0.53
2022-09-01T10:10:43.514Z,0.50
2022-09-01T10:13:21.629Z,0.50
2022-09-01T10:15:51.871Z,0.50
2022-09-01T10:18:28.335Z,0.63
2022-09-01T10:21:02.019Z,0.40
2022-09-01T10:23:34.919Z,0.70
2022-09-01T10:26:11.561Z,0.53
2022-09-01T10:28:41.833Z,0.73
2022-09-01T10:31:17.388Z,0.40
2022-09-01T10:33:44.397Z,0.60
2022-09-01T10:36:11.385Z,0.43
2022-09-01T10:38:39.280Z,0.40
2022-09-01T10:41:13.989Z,0.47
2022-09-01T10:43:45.279Z,0.40
2022-09-01T10:46:38.836Z,0.40
2022-09-01T10:49:27.724Z,0.43
2022-09-01T10:51:56.541Z,0.60
2022-09-01T10:54:57.269Z,0.67
2022-09-01T10:57:28.284Z,0.50
2022-09-01T11:06:12.376Z,0.50
2022-09-01T11:08:40.231Z,0.33
2022-09-01T11:11:22.387Z,0.33
2022-09-01T11:13:50.777Z,0.50
2022-09-01T11:19:23.040Z,0.60
2022-09-01T11:22:04.095Z,0.47
2022-09-01T11:24:40.537Z,0.33
2022-09-01T11:27:12.109Z,0.50
2022-09-01T11:29:52.922Z,0.30
2022-09-01T11:32:24.684Z,0.30
2022-09-01T11:34:51.971Z,0.60
2022-09-01T11:37:21.733Z,0.50
2022-09-01T11:39:49.857Z,0.27
2022-09-01T11:42:28.371Z,0.40
2022-09-01T11:44:55.335Z,0.30
2022-09-01T11:47:28.102Z,0.40
2022-09-01T11:50:07.724Z,0.40
2022-09-01T11:52:37.133Z,0.40
2022-09-01T11:55:07.103Z,0.30
2022-09-01T11:57:35.707Z,0.40
2022-09-01T12:00:05.327Z,0.30
2022-09-01T12:02:43.775Z,0.60
2022-09-01T12:05:43.212Z,0.30
2022-09-01T12:08:15.072Z,0.40
2022-09-01T12:10:43.581Z,0.30
2022-09-01T12:13:12.233Z,0.30
2022-09-01T12:16:07.153Z,0.30
2022-09-01T12:18:35.364Z,0.40
2022-09-01T12:21:03.886Z,0.37
2022-09-01T12:23:34.426Z,0.40
2022-09-01T12:26:12.626Z,0.50
2022-09-01T12:28:41.825Z,0.40
2022-09-01T12:31:13.623Z,0.30
2022-09-01T12:33:42.773Z,0.30
2022-09-01T12:36:20.551Z,0.40
2022-09-01T12:38:48.406Z,0.40
2022-09-01T12:41:35.478Z,0.40
2022-09-01T12:44:21.220Z,0.43
2022-09-01T12:46:48.087Z,0.50
2022-09-01T12:49:28.477Z,0.40
2022-09-01T12:52:20.407Z,0.50
2022-09-01T12:54:49.705Z,0.60
2022-09-01T12:57:30.059Z,0.50
2022-09-01T13:00:12.530Z,0.60
2022-09-01T13:02:41.071Z,0.60
2022-09-01T13:05:21.766Z,0.50
2022-09-01T13:07:48.931Z,0.57
2022-09-01T13:10:15.957Z,0.50
2022-09-01T13:12:43.482Z,0.40
2022-09-01T13:15:10.968Z,0.43
2022-09-01T13:17:38.578Z,0.50
2022-09-01T13:20:06.722Z,0.57
2022-09-01T13:22:33.816Z,0.60
2022-09-01T13:25:01.018Z,0.40
2022-09-01T13:27:28.497Z,0.37
2022-09-01T13:29:55.979Z,0.40
2022-09-01T13:32:24.005Z,0.40
2022-09-01T13:34:52.359Z,0.43
2022-09-01T13:37:20.264Z,0.60
2022-09-01T13:39:50.101Z,0.57
2022-09-01T13:42:17.547Z,0.67
2022-09-01T13:44:45.690Z,0.50
2022-09-01T13:47:30.230Z,0.50
2022-09-01T13:50:07.162Z,0.60
2022-09-01T13:52:35.966Z,0.40
2022-09-01T13:55:03.011Z,0.40
2022-09-01T13:57:35.988Z,0.70
2022-09-01T14:00:05.104Z,0.63
2022-09-01T14:02:38.181Z,0.47
2022-09-01T14:05:05.368Z,0.40
2022-09-01T14:07:32.590Z,0.57
2022-09-01T14:10:00.480Z,0.67
2022-09-01T14:12:27.563Z,0.40
2022-09-01T14:17:41.803Z,0.70
2022-09-01T14:20:12.951Z,1.57
2022-09-01T14:22:41.148Z,0.50
2022-09-01T14:25:08.765Z,0.60
2022-09-01T14:27:35.596Z,0.60
2022-09-01T14:30:02.797Z,0.90
2022-09-01T14:32:29.701Z,1.10
2022-09-01T14:34:57.324Z,0.60
2022-09-01T14:37:24.393Z,0.83
2022-09-01T14:39:52.384Z,1.00
2022-09-01T14:42:20.067Z,1.40
2022-09-01T14:44:47.885Z,1.73
2022-09-01T14:47:18.213Z,1.30
2022-09-01T14:49:46.951Z,1.40
2022-09-01T14:52:14.569Z,1.13
2022-09-01T14:54:44.945Z,0.77
2022-09-01T14:57:37.411Z,0.50
2022-09-01T15:00:01.265Z,0.70
2022-09-01T15:02:29.361Z,0.73
2022-09-01T15:04:56.408Z,1.00
2022-09-01T15:07:23.808Z,0.80
2022-09-01T15:09:50.770Z,0.60
2022-09-01T15:12:17.784Z,0.60
2022-09-01T15:14:44.945Z,0.70
2022-09-01T15:17:11.963Z,0.70
2022-09-01T15:19:44.814Z,0.80
2022-09-01T15:22:14.613Z,0.57
2022-09-01T15:24:41.627Z,0.50
2022-09-01T15:27:08.610Z,0.63
2022-09-01T15:29:37.140Z,0.50
2022-09-01T15:32:04.052Z,0.40
2022-09-01T15:34:31.029Z,0.50
2022-09-01T15:36:57.912Z,0.70
2022-09-01T15:39:25.090Z,0.50
2022-09-01T15:42:00.320Z,0.30
2022-09-01T15:44:27.127Z,0.47
2022-09-01T15:46:54.243Z,0.40
2022-09-01T15:49:21.306Z,0.50
2022-09-01T15:51:48.268Z,0.40
2022-09-01T15:54:16.541Z,0.40
2022-09-01T15:56:43.918Z,0.60
2022-09-01T15:59:11.022Z,0.50
2022-09-01T16:01:39.555Z,0.57
2022-09-01T16:04:15.872Z,0.50
2022-09-01T16:06:45.314Z,0.53
2022-09-01T16:09:13.260Z,0.30
2022-09-01T16:11:40.650Z,0.73
2022-09-01T16:14:12.386Z,0.57
2022-09-01T16:16:54.781Z,0.60
2022-09-01T16:19:39.524Z,0.70
2022-09-01T16:22:26.449Z,0.50
2022-09-01T16:24:55.092Z,0.67
2022-09-01T16:27:24.576Z,0.60
2022-09-01T16:30:08.560Z,0.53
2022-09-01T16:32:36.297Z,0.60
2022-09-01T16:35:04.295Z,0.50
2022-09-01T16:37:40.408Z,0.33
2022-09-01T16:40:14.365Z,0.50
2022-09-01T16:42:41.851Z,0.37
2022-09-01T16:45:27.027Z,1.00
2022-09-01T16:48:13.298Z,0.40
2022-09-01T16:50:55.628Z,0.53
2022-09-01T16:53:42.579Z,0.47
2022-09-01T16:56:19.900Z,0.43
2022-09-01T16:58:57.612Z,0.50
2022-09-01T17:01:41.441Z,0.70
2022-09-01T17:04:31.624Z,0.60
2022-09-01T17:07:06.126Z,0.50
2022-09-01T17:09:33.545Z,0.50
2022-09-01T17:12:12.805Z,0.53
2022-09-01T17:14:47.670Z,0.57
2022-09-01T17:17:19.349Z,0.70
2022-09-01T17:19:52.735Z,0.73
2022-09-01T17:22:20.711Z,0.60
2022-09-01T17:25:08.029Z,0.60
2022-09-01T17:28:00.115Z,0.70
2022-09-01T17:30:27.646Z,0.50
2022-09-01T17:33:01.992Z,0.60
2022-09-01T17:36:04.679Z,0.80
2022-09-01T17:39:01.392Z,1.00
2022-09-01T17:41:53.075Z,0.80
2022-09-01T17:44:38.237Z,0.90
2022-09-01T17:47:23.463Z,1.20
2022-09-01T17:50:09.832Z,2.20
2022-09-01T17:53:02.154Z,3.07
2022-09-01T17:55:41.620Z,3.20
2022-09-01T17:58:08.850Z,2.53
2022-09-01T18:00:46.802Z,3.33
2022-09-01T18:03:22.870Z,2.40
2022-09-01T18:05:59.877Z,1.07
2022-09-01T18:08:32.294Z,1.10
2022-09-01T18:11:05.163Z,1.40
2022-09-01T18:13:53.316Z,1.23
2022-09-01T18:16:44.238Z,1.13
2022-09-01T18:19:19.764Z,0.73
2022-09-01T18:22:05.078Z,0.87
2022-09-01T18:24:35.267Z,0.97
2022-09-01T18:27:02.286Z,0.87
2022-09-01T18:29:31.747Z,0.70
2022-09-01T18:32:08.177Z,0.60
2022-09-01T18:34:38.215Z,0.70
2022-09-01T18:37:11.217Z,0.80
2022-09-01T18:39:49.521Z,1.07
2022-09-01T18:42:22.327Z,0.90
2022-09-01T18:44:55.410Z,1.27
2022-09-01T18:47:44.531Z,0.80
2022-09-01T18:50:17.635Z,1.17
2022-09-01T18:52:52.254Z,1.00
2022-09-01T18:55:37.822Z,0.80
2022-09-01T18:58:27.679Z,1.27
2022-09-01T19:01:08.508Z,1.00
2022-09-01T19:03:39.132Z,1.70
2022-09-01T19:06:18.589Z,1.30
2022-09-01T19:08:54.445Z,1.80
2022-09-01T19:11:33.636Z,1.97
2022-09-01T19:14:11.297Z,1.97
2022-09-01T19:16:57.168Z,1.90
2022-09-01T19:19:27.895Z,2.50
2022-09-01T19:21:56.079Z,2.03
2022-09-01T19:24:27.919Z,2.53
2022-09-01T19:26:57.850Z,1.90
2022-09-01T19:29:31.339Z,1.57
2022-09-01T19:32:02.200Z,2.37
2022-09-01T19:34:37.991Z,2.00
2022-09-01T19:37:05.593Z,1.73
2022-09-01T19:39:34.506Z,1.97
2022-09-01T19:42:02.373Z,1.83
2022-09-01T19:44:47.740Z,1.83
2022-09-01T19:47:41.383Z,2.13
2022-09-01T19:50:14.478Z,1.80
2022-09-01T19:53:05.055Z,2.50
2022-09-01T19:55:50.818Z,1.97
2022-09-01T19:58:19.788Z,2.20
2022-09-01T20:00:56.095Z,2.00
2022-09-01T20:03:27.514Z,2.43
2022-09-01T20:05:57.312Z,1.83
2022-09-01T20:08:28.692Z,2.13
2022-09-01T20:11:14.881Z,2.10
2022-09-01T20:13:50.965Z,1.73
2022-09-01T20:16:33.463Z,2.27
2022-09-01T20:19:00.362Z,2.20
2022-09-01T20:21:27.245Z,2.53
2022-09-01T20:24:03.565Z,2.57
2022-09-01T20:26:35.145Z,2.30
2022-09-01T20:29:20.307Z,1.73
2022-09-01T20:31:51.478Z,1.60
2022-09-01T20:34:32.667Z,1.70
2022-09-01T20:37:03.593Z,1.63
2022-09-01T20:40:02.879Z,2.17
2022-09-01T20:42:31.589Z,1.80
2022-09-01T20:45:13.075Z,2.17
2022-09-01T20:47:40.203Z,2.37
2022-09-01T20:50:10.023Z,2.33
2022-09-01T20:52:55.717Z,2.23
2022-09-01T20:55:41.871Z,2.70
2022-09-01T20:58:17.962Z,2.77
2022-09-01T21:00:48.982Z,2.73
2022-09-01T21:03:22.843Z,2.90
2022-09-01T21:06:26.870Z,2.77
2022-09-01T21:09:09.835Z,2.77
2022-09-01T21:11:40.114Z,2.90
2022-09-01T21:14:14.052Z,2.80
2022-09-01T21:16:46.453Z,3.00
2022-09-01T21:19:23.667Z,2.70
2022-09-01T21:21:56.912Z,3.23
2022-09-01T21:24:23.963Z,2.73
2022-09-01T21:27:04.003Z,3.20
2022-09-01T21:30:05.929Z,2.90
2022-09-01T21:32:45.052Z,2.80
2022-09-01T21:43:34.310Z,3.40
2022-09-01T21:46:01.493Z,2.90
2022-09-01T21:48:28.867Z,3.47
2022-09-01T21:50:58.653Z,3.13
2022-09-01T22:05:51.965Z,2.93
2022-09-01T22:08:19.217Z,2.87
2022-09-01T22:10:49.559Z,3.43
2022-09-01T22:13:16.766Z,2.53
2022-09-01T22:15:45.094Z,3.00
2022-09-01T22:18:12.719Z,3.03
2022-09-01T22:20:40.390Z,3.20
2022-09-01T22:23:07.812Z,3.33
2022-09-01T22:25:35.993Z,3.10
2022-09-01T22:28:04.693Z,3.17
2022-09-01T22:30:32.358Z,3.03
2022-09-01T22:33:00.041Z,3.40
2022-09-01T22:35:27.307Z,2.90
2022-09-01T22:37:54.347Z,2.83
2022-09-01T22:40:21.494Z,2.43
2022-09-01T22:42:48.381Z,2.57
2022-09-01T22:45:15.574Z,2.87
2022-09-01T22:47:42.555Z,2.50
2022-09-01T22:50:13.554Z,2.53
2022-09-01T22:52:41.037Z,2.80
2022-09-01T22:55:09.601Z,2.73
2022-09-01T22:57:37.075Z,3.10
2022-09-01T23:00:09.621Z,2.80
2022-09-01T23:02:36.658Z,3.10
2022-09-01T23:05:06.045Z,2.50
2022-09-01T23:07:34.891Z,2.87
2022-09-01T23:10:02.115Z,2.60
2022-09-01T23:12:28.952Z,2.70
2022-09-01T23:14:55.953Z,2.70
2022-09-01T23:17:22.785Z,2.30
2022-09-01T23:19:49.738Z,2.60
2022-09-01T23:22:16.721Z,2.80
2022-09-01T23:24:43.547Z,2.50
2022-09-01T23:27:10.591Z,2.63
2022-09-01T23:29:38.054Z,3.00
2022-09-01T23:32:05.087Z,2.50
2022-09-01T23:34:32.052Z,3.00
2022-09-01T23:36:58.980Z,2.77
2022-09-01T23:39:26.060Z,2.57
2022-09-01T23:41:53.056Z,2.77
2022-09-01T23:44:19.896Z,2.90
2022-09-01T23:46:47.289Z,2.53
2022-09-01T23:49:14.949Z,2.67
2022-09-01T23:51:41.940Z,2.40
2022-09-01T23:54:08.868Z,2.70
2022-09-01T23:56:36.030Z,2.70
2022-09-01T23:59:02.864Z,2.57
